Terminal Aerodrome Forecast
Issued by NWS

Home | Current Version | Previous Version | Text Only | Print | Product List | Glossary On
Versions: 1 2 3 4 5 6 7 8 9 10 11 12 13 14
000
FTUS44 KCRP 261742
TAFLRD
TAF
KLRD 261742Z 2618/2718 17005KT P6SM BKN015
      TEMPO 2618/2619 SCT015 BKN045
     FM261900 18006KT P6SM BKN045
     FM270000 14006KT P6SM BKN250
     FM271100 15005KT 6SM BR FEW025 BKN050=

USA.gov is the U.S. government's official web portal to all federal, state and local government web resources and services.